sensor_id;sensor_type;location;lat;lon;timestamp;pressure;altitude;pressure_sealevel;temperature;humidity
21547;BME280;41275;51.912;4.388;2024-03-02T00:03:02;99743.84;;;13.06;52.20
21547;BME280;41275;51.912;4.388;2024-03-02T00:08:24;99742.22;;;13.15;52.66
21547;BME280;41275;51.912;4.388;2024-03-02T00:13:48;99761.34;;;13.17;52.49
21547;BME280;41275;51.912;4.388;2024-03-02T00:19:10;99770.13;;;13.08;52.74
21547;BME280;41275;51.912;4.388;2024-03-02T00:24:33;99765.88;;;13.07;52.60
21547;BME280;41275;51.912;4.388;2024-03-02T00:29:55;99761.63;;;13.06;52.61
21547;BME280;41275;51.912;4.388;2024-03-02T00:35:23;99753.13;;;13.03;52.61
21547;BME280;41275;51.912;4.388;2024-03-02T00:40:44;99762.94;;;13.08;52.80
21547;BME280;41275;51.912;4.388;2024-03-02T00:46:06;99765.59;;;13.08;53.00
21547;BME280;41275;51.912;4.388;2024-03-02T00:51:29;99762.69;;;13.05;52.72
21547;BME280;41275;51.912;4.388;2024-03-02T00:56:52;99766.69;;;13.02;52.78
21547;BME280;41275;51.912;4.388;2024-03-02T01:02:15;99761.63;;;13.06;52.81
21547;BME280;41275;51.912;4.388;2024-03-02T01:07:38;99752.34;;;13.03;52.45
21547;BME280;41275;51.912;4.388;2024-03-02T01:12:59;99748.63;;;12.99;52.75
21547;BME280;41275;51.912;4.388;2024-03-02T01:18:21;99774.41;;;12.93;52.76
21547;BME280;41275;51.912;4.388;2024-03-02T01:23:43;99784.75;;;12.95;52.68
21547;BME280;41275;51.912;4.388;2024-03-02T01:29:04;99798.03;;;12.95;52.15
21547;BME280;41275;51.912;4.388;2024-03-02T01:34:26;99783.69;;;12.86;52.06
21547;BME280;41275;51.912;4.388;2024-03-02T01:39:47;99782.13;;;12.69;52.42
21547;BME280;41275;51.912;4.388;2024-03-02T01:45:08;99779.19;;;12.50;52.19
21547;BME280;41275;51.912;4.388;2024-03-02T01:50:33;99787.63;;;12.37;52.34
21547;BME280;41275;51.912;4.388;2024-03-02T01:55:54;99797.72;;;12.45;52.63
21547;BME280;41275;51.912;4.388;2024-03-02T02:01:16;99794.56;;;12.64;52.60
21547;BME280;41275;51.912;4.388;2024-03-02T02:06:37;99796.44;;;12.78;52.65
21547;BME280;41275;51.912;4.388;2024-03-02T02:11:59;99795.91;;;12.87;52.71
21547;BME280;41275;51.912;4.388;2024-03-02T02:17:20;99793.25;;;12.92;52.21
21547;BME280;41275;51.912;4.388;2024-03-02T02:22:55;99800.41;;;12.91;52.24
21547;BME280;41275;51.912;4.388;2024-03-02T02:28:17;99805.72;;;12.76;52.46
21547;BME280;41275;51.912;4.388;2024-03-02T02:33:42;99803.59;;;12.68;52.62
21547;BME280;41275;51.912;4.388;2024-03-02T02:39:03;99794.56;;;12.59;52.51
21547;BME280;41275;51.912;4.388;2024-03-02T02:44:25;99797.47;;;12.52;52.51
21547;BME280;41275;51.912;4.388;2024-03-02T02:49:47;99794.31;;;12.50;52.71
21547;BME280;41275;51.912;4.388;2024-03-02T02:55:12;99792.97;;;12.68;52.79
21547;BME280;41275;51.912;4.388;2024-03-02T03:00:34;99790.84;;;12.80;52.92
21547;BME280;41275;51.912;4.388;2024-03-02T03:05:55;99802.28;;;12.86;52.85
21547;BME280;41275;51.912;4.388;2024-03-02T03:11:16;99807.59;;;12.91;52.71
21547;BME280;41275;51.912;4.388;2024-03-02T03:16:37;99811.81;;;12.92;52.82
21547;BME280;41275;51.912;4.388;2024-03-02T03:21:59;99801.47;;;12.95;52.85
21547;BME280;41275;51.912;4.388;2024-03-02T03:27:20;99808.13;;;12.98;52.88
21547;BME280;41275;51.912;4.388;2024-03-02T03:32:41;99805.72;;;13.01;52.79
21547;BME280;41275;51.912;4.388;2024-03-02T03:38:03;99814.22;;;13.03;52.76
21547;BME280;41275;51.912;4.388;2024-03-02T03:43:24;99815.28;;;12.97;52.66
21547;BME280;41275;51.912;4.388;2024-03-02T03:48:45;99807.31;;;12.97;52.57
21547;BME280;41275;51.912;4.388;2024-03-02T03:54:06;99819.25;;;12.85;52.68
21547;BME280;41275;51.912;4.388;2024-03-02T03:59:28;99818.19;;;12.60;52.66
21547;BME280;41275;51.912;4.388;2024-03-02T04:04:49;99823.75;;;12.48;52.55
21547;BME280;41275;51.912;4.388;2024-03-02T04:10:10;99822.69;;;12.49;52.61
21547;BME280;41275;51.912;4.388;2024-03-02T04:15:33;99831.97;;;12.52;52.75
21547;BME280;41275;51.912;4.388;2024-03-02T04:20:54;99831.97;;;12.42;52.86
21547;BME280;41275;51.912;4.388;2024-03-02T04:26:15;99824.03;;;12.42;53.29
21547;BME280;41275;51.912;4.388;2024-03-02T04:31:40;99826.16;;;12.60;52.72
21547;BME280;41275;51.912;4.388;2024-03-02T04:37:01;99839.97;;;12.72;52.73
21547;BME280;41275;51.912;4.388;2024-03-02T04:42:23;99847.16;;;12.82;52.11
21547;BME280;41275;51.912;4.388;2024-03-02T04:47:45;99846.34;;;12.87;52.45
21547;BME280;41275;51.912;4.388;2024-03-02T04:53:07;99862.56;;;12.85;52.23
21547;BME280;41275;51.912;4.388;2024-03-02T04:58:28;99850.59;;;12.93;51.94
21547;BME280;41275;51.912;4.388;2024-03-02T05:03:49;99856.19;;;12.81;51.99
21547;BME280;41275;51.912;4.388;2024-03-02T05:09:10;99867.31;;;12.83;51.93
21547;BME280;41275;51.912;4.388;2024-03-02T05:14:31;99867.06;;;12.80;51.88
21547;BME280;41275;51.912;4.388;2024-03-02T05:19:53;99873.94;;;12.70;52.18
21547;BME280;41275;51.912;4.388;2024-03-02T05:25:14;99872.63;;;12.63;52.06
21547;BME280;41275;51.912;4.388;2024-03-02T05:30:35;99880.28;;;12.54;52.02
21547;BME280;41275;51.912;4.388;2024-03-02T05:35:56;99885.31;;;12.50;52.25
21547;BME280;41275;51.912;4.388;2024-03-02T05:41:18;99877.66;;;12.59;52.30
21547;BME280;41275;51.912;4.388;2024-03-02T05:46:39;99875.50;;;12.61;52.38
21547;BME280;41275;51.912;4.388;2024-03-02T05:52:00;99871.53;;;12.59;52.07
21547;BME280;41275;51.912;4.388;2024-03-02T05:57:21;99879.97;;;12.45;52.30
21547;BME280;41275;51.912;4.388;2024-03-02T06:03:08;99885.06;;;12.47;52.29
21547;BME280;41275;51.912;4.388;2024-03-02T06:08:30;99886.91;;;12.57;52.35
21547;BME280;41275;51.912;4.388;2024-03-02T06:13:51;99891.72;;;12.65;52.11
21547;BME280;41275;51.912;4.388;2024-03-02T06:19:12;99905.28;;;12.78;51.92
21547;BME280;41275;51.912;4.388;2024-03-02T06:24:36;99909.53;;;12.74;51.63
21547;BME280;41275;51.912;4.388;2024-03-02T06:29:57;99904.75;;;12.66;51.45
21547;BME280;41275;51.912;4.388;2024-03-02T06:35:18;99900.97;;;12.52;51.73
21547;BME280;41275;51.912;4.388;2024-03-02T06:40:39;99903.91;;;12.50;51.41
21547;BME280;41275;51.912;4.388;2024-03-02T06:46:01;99898.53;;;12.30;51.72
21547;BME280;41275;51.912;4.388;2024-03-02T06:51:23;99912.75;;;12.09;51.52
21547;BME280;41275;51.912;4.388;2024-03-02T06:56:44;99923.63;;;12.07;51.86
21547;BME280;41275;51.912;4.388;2024-03-02T07:02:06;99931.63;;;12.17;51.51
21547;BME280;41275;51.912;4.388;2024-03-02T07:07:27;99927.88;;;12.13;51.43
21547;BME280;41275;51.912;4.388;2024-03-02T07:12:48;99937.41;;;12.09;51.84
21547;BME280;41275;51.912;4.388;2024-03-02T07:18:10;99932.41;;;12.18;51.80
21547;BME280;41275;51.912;4.388;2024-03-02T07:23:31;99942.06;;;12.34;51.79
21547;BME280;41275;51.912;4.388;2024-03-02T07:28:52;99943.38;;;12.32;51.76
21547;BME280;41275;51.912;4.388;2024-03-02T07:34:14;99948.13;;;12.29;51.51
21547;BME280;41275;51.912;4.388;2024-03-02T07:39:35;99951.53;;;12.20;51.56
21547;BME280;41275;51.912;4.388;2024-03-02T07:44:56;99960.28;;;12.20;51.66
21547;BME280;41275;51.912;4.388;2024-03-02T07:50:17;99955.78;;;12.21;51.78
21547;BME280;41275;51.912;4.388;2024-03-02T07:55:39;99939.34;;;12.24;51.74
21547;BME280;41275;51.912;4.388;2024-03-02T08:01:00;99946.03;;;12.32;51.63
21547;BME280;41275;51.912;4.388;2024-03-02T08:06:22;99947.66;;;12.43;51.61
21547;BME280;41275;51.912;4.388;2024-03-02T08:11:43;99949.53;;;12.52;51.52
21547;BME280;41275;51.912;4.388;2024-03-02T08:17:04;99959.13;;;12.64;51.62
21547;BME280;41275;51.912;4.388;2024-03-02T08:22:30;99960.50;;;12.71;51.28
21547;BME280;41275;51.912;4.388;2024-03-02T08:27:51;99956.25;;;12.81;50.99
21547;BME280;41275;51.912;4.388;2024-03-02T08:33:13;99958.94;;;12.96;51.40
21547;BME280;41275;51.912;4.388;2024-03-02T08:38:34;99963.50;;;13.06;50.74
21547;BME280;41275;51.912;4.388;2024-03-02T08:43:55;99955.56;;;13.31;50.85
21547;BME280;41275;51.912;4.388;2024-03-02T08:49:16;99961.97;;;13.45;50.11
21547;BME280;41275;51.912;4.388;2024-03-02T08:54:38;99955.84;;;13.50;49.95
21547;BME280;41275;51.912;4.388;2024-03-02T08:59:59;99962.19;;;13.59;49.58
21547;BME280;41275;51.912;4.388;2024-03-02T09:05:21;99970.19;;;13.69;49.42
21547;BME280;41275;51.912;4.388;2024-03-02T09:10:42;99976.84;;;13.72;48.78
21547;BME280;41275;51.912;4.388;2024-03-02T09:16:04;99979.47;;;13.87;49.04
21547;BME280;41275;51.912;4.388;2024-03-02T09:21:26;99975.44;;;14.05;48.51
21547;BME280;41275;51.912;4.388;2024-03-02T09:26:47;99975.66;;;14.24;48.26
21547;BME280;41275;51.912;4.388;2024-03-02T09:32:12;99983.03;;;14.47;48.31
21547;BME280;41275;51.912;4.388;2024-03-02T09:37:35;99980.38;;;14.53;47.59
21547;BME280;41275;51.912;4.388;2024-03-02T09:42:56;99981.63;;;14.70;47.13
21547;BME280;41275;51.912;4.388;2024-03-02T09:48:18;99994.59;;;14.87;47.01
21547;BME280;41275;51.912;4.388;2024-03-02T09:53:41;100003.06;;;15.00;46.63
21547;BME280;41275;51.912;4.388;2024-03-02T09:59:02;100002.97;;;15.15;45.71
21547;BME280;41275;51.912;4.388;2024-03-02T10:04:28;99996.00;;;15.19;45.12
21547;BME280;41275;51.912;4.388;2024-03-02T10:09:49;99989.13;;;15.47;45.07
21547;BME280;41275;51.912;4.388;2024-03-02T10:15:10;99985.50;;;15.72;44.47
21547;BME280;41275;51.912;4.388;2024-03-02T10:20:32;99974.75;;;16.06;44.38
21547;BME280;41275;51.912;4.388;2024-03-02T10:25:54;99967.13;;;16.42;43.59
21547;BME280;41275;51.912;4.388;2024-03-02T10:31:16;99974.13;;;16.38;43.24
21547;BME280;41275;51.912;4.388;2024-03-02T10:36:40;99966.75;;;16.30;42.79
21547;BME280;41275;51.912;4.388;2024-03-02T10:42:03;99954.25;;;16.26;42.55
21547;BME280;41275;51.912;4.388;2024-03-02T10:47:25;99957.25;;;15.95;42.72
21547;BME280;41275;51.912;4.388;2024-03-02T10:52:48;99962.34;;;15.91;42.41
21547;BME280;41275;51.912;4.388;2024-03-02T10:58:11;99957.19;;;15.76;42.67
21547;BME280;41275;51.912;4.388;2024-03-02T11:03:35;99965.94;;;15.82;42.53
21547;BME280;41275;51.912;4.388;2024-03-02T11:08:58;99966.91;;;15.91;42.74
21547;BME280;41275;51.912;4.388;2024-03-02T11:14:24;99964.44;;;16.00;42.18
21547;BME280;41275;51.912;4.388;2024-03-02T11:19:47;99951.88;;;16.24;42.38
21547;BME280;41275;51.912;4.388;2024-03-02T11:25:23;99959.28;;;16.70;41.94
21547;BME280;41275;51.912;4.388;2024-03-02T11:36:07;99947.34;;;17.57;40.14
21547;BME280;41275;51.912;4.388;2024-03-02T11:41:30;99933.44;;;18.01;39.27
21547;BME280;41275;51.912;4.388;2024-03-02T11:46:59;99929.66;;;18.44;38.33
21547;BME280;41275;51.912;4.388;2024-03-02T11:52:20;99921.97;;;18.64;38.02
21547;BME280;41275;51.912;4.388;2024-03-02T11:57:42;99915.88;;;18.86;37.47
21547;BME280;41275;51.912;4.388;2024-03-02T12:03:08;99905.75;;;18.83;36.70
21547;BME280;41275;51.912;4.388;2024-03-02T12:08:30;99912.25;;;18.55;37.08
21547;BME280;41275;51.912;4.388;2024-03-02T12:13:53;99886.25;;;18.55;36.77
21547;BME280;41275;51.912;4.388;2024-03-02T12:19:18;99883.66;;;18.64;37.00
21547;BME280;41275;51.912;4.388;2024-03-02T12:24:41;99872.56;;;18.57;37.15
21547;BME280;41275;51.912;4.388;2024-03-02T12:30:03;99876.38;;;18.78;37.58
21547;BME280;41275;51.912;4.388;2024-03-02T12:35:25;99888.75;;;19.64;36.99
21547;BME280;41275;51.912;4.388;2024-03-02T12:40:48;99891.69;;;19.85;36.12
21547;BME280;41275;51.912;4.388;2024-03-02T12:46:10;99899.78;;;20.59;35.51
21547;BME280;41275;51.912;4.388;2024-03-02T12:51:32;99879.22;;;20.81;34.19
21547;BME280;41275;51.912;4.388;2024-03-02T12:56:53;99858.75;;;21.70;33.18
21547;BME280;41275;51.912;4.388;2024-03-02T13:02:18;99866.72;;;21.58;32.18
21547;BME280;41275;51.912;4.388;2024-03-02T13:07:41;99861.19;;;20.73;32.79
21547;BME280;41275;51.912;4.388;2024-03-02T13:13:02;99860.97;;;20.26;33.53
21547;BME280;41275;51.912;4.388;2024-03-02T13:18:24;99851.44;;;20.02;33.71
21547;BME280;41275;51.912;4.388;2024-03-02T13:23:45;99845.16;;;20.16;33.90
21547;BME280;41275;51.912;4.388;2024-03-02T13:29:06;99841.66;;;20.15;34.01
21547;BME280;41275;51.912;4.388;2024-03-02T13:34:28;99835.22;;;20.25;34.15
21547;BME280;41275;51.912;4.388;2024-03-02T13:39:50;99835.41;;;20.72;33.82
21547;BME280;41275;51.912;4.388;2024-03-02T13:45:11;99808.81;;;20.88;33.44
21547;BME280;41275;51.912;4.388;2024-03-02T13:50:32;99812.25;;;20.97;33.36
21547;BME280;41275;51.912;4.388;2024-03-02T13:55:54;99802.13;;;21.02;33.37
21547;BME280;41275;51.912;4.388;2024-03-02T14:01:15;99797.44;;;20.30;33.67
21547;BME280;41275;51.912;4.388;2024-03-02T14:06:36;99793.91;;;19.77;34.34
21547;BME280;41275;51.912;4.388;2024-03-02T14:11:58;99789.38;;;20.21;34.22
21547;BME280;41275;51.912;4.388;2024-03-02T14:17:21;99795.72;;;20.60;33.73
21547;BME280;41275;51.912;4.388;2024-03-02T14:22:42;99798.06;;;20.35;34.08
21547;BME280;41275;51.912;4.388;2024-03-02T14:28:04;99795.88;;;20.20;34.45
21547;BME280;41275;51.912;4.388;2024-03-02T14:33:25;99788.22;;;19.79;34.74
21547;BME280;41275;51.912;4.388;2024-03-02T14:38:47;99788.69;;;19.41;35.10
21547;BME280;41275;51.912;4.388;2024-03-02T14:44:09;99785.19;;;19.23;35.52
21547;BME280;41275;51.912;4.388;2024-03-02T14:49:30;99786.50;;;19.34;35.49
21547;BME280;41275;51.912;4.388;2024-03-02T14:54:51;99784.41;;;19.31;35.67
21547;BME280;41275;51.912;4.388;2024-03-02T15:00:13;99780.28;;;19.25;35.72
21547;BME280;41275;51.912;4.388;2024-03-02T15:05:35;99772.69;;;19.19;36.00
21547;BME280;41275;51.912;4.388;2024-03-02T15:10:57;99770.03;;;19.27;36.08
21547;BME280;41275;51.912;4.388;2024-03-02T15:16:20;99757.78;;;19.44;36.23
21547;BME280;41275;51.912;4.388;2024-03-02T15:21:41;99759.31;;;19.67;35.54
21547;BME280;41275;51.912;4.388;2024-03-02T15:27:03;99749.00;;;19.60;35.44
21547;BME280;41275;51.912;4.388;2024-03-02T15:32:26;99750.63;;;19.70;35.72
21547;BME280;41275;51.912;4.388;2024-03-02T15:37:47;99750.09;;;19.59;35.71
21547;BME280;41275;51.912;4.388;2024-03-02T15:43:09;99745.63;;;19.37;35.93
21547;BME280;41275;51.912;4.388;2024-03-02T15:48:30;99740.69;;;19.22;36.02
21547;BME280;41275;51.912;4.388;2024-03-02T15:53:53;99737.31;;;19.08;36.25
21547;BME280;41275;51.912;4.388;2024-03-02T15:59:15;99741.66;;;18.95;36.50
21547;BME280;41275;51.912;4.388;2024-03-02T16:04:36;99733.09;;;18.84;36.66
21547;BME280;41275;51.912;4.388;2024-03-02T16:09:58;99729.31;;;18.85;36.77
21547;BME280;41275;51.912;4.388;2024-03-02T16:15:19;99737.50;;;18.80;36.89
21547;BME280;41275;51.912;4.388;2024-03-02T16:20:40;99737.31;;;18.77;37.36
21547;BME280;41275;51.912;4.388;2024-03-02T16:26:04;99735.88;;;18.71;37.28
21547;BME280;41275;51.912;4.388;2024-03-02T16:31:26;99730.31;;;18.67;37.42
21547;BME280;41275;51.912;4.388;2024-03-02T16:36:47;99745.41;;;18.63;37.63
21547;BME280;41275;51.912;4.388;2024-03-02T16:42:08;99723.38;;;18.44;37.88
21547;BME280;41275;51.912;4.388;2024-03-02T16:47:29;99729.22;;;18.46;38.33
21547;BME280;41275;51.912;4.388;2024-03-02T16:52:50;99747.03;;;18.50;38.42
21547;BME280;41275;51.912;4.388;2024-03-02T16:58:12;99746.44;;;18.53;38.56
21547;BME280;41275;51.912;4.388;2024-03-02T17:03:33;99757.75;;;18.50;38.65
21547;BME280;41275;51.912;4.388;2024-03-02T17:08:54;99756.00;;;18.46;39.13
21547;BME280;41275;51.912;4.388;2024-03-02T17:14:15;99759.28;;;18.43;39.48
21547;BME280;41275;51.912;4.388;2024-03-02T17:19:37;99756.72;;;18.37;39.74
21547;BME280;41275;51.912;4.388;2024-03-02T17:24:58;99758.25;;;18.30;39.65
21547;BME280;41275;51.912;4.388;2024-03-02T17:30:19;99761.25;;;18.28;39.49
21547;BME280;41275;51.912;4.388;2024-03-02T17:35:41;99762.31;;;18.27;39.87
21547;BME280;41275;51.912;4.388;2024-03-02T17:41:06;99759.19;;;18.11;40.62
21547;BME280;41275;51.912;4.388;2024-03-02T17:46:28;99754.75;;;18.07;40.58
21547;BME280;41275;51.912;4.388;2024-03-02T17:51:49;99752.84;;;18.07;41.00
21547;BME280;41275;51.912;4.388;2024-03-02T17:57:11;99759.81;;;18.08;40.92
21547;BME280;41275;51.912;4.388;2024-03-02T18:02:32;99753.69;;;17.94;41.25
21547;BME280;41275;51.912;4.388;2024-03-02T18:07:56;99761.94;;;17.84;41.30
21547;BME280;41275;51.912;4.388;2024-03-02T18:13:17;99760.06;;;17.84;40.92
21547;BME280;41275;51.912;4.388;2024-03-02T18:18:38;99767.19;;;17.89;41.12
21547;BME280;41275;51.912;4.388;2024-03-02T18:23:59;99763.41;;;17.90;40.91
21547;BME280;41275;51.912;4.388;2024-03-02T18:29:21;99761.06;;;17.88;40.89
21547;BME280;41275;51.912;4.388;2024-03-02T18:34:42;99762.44;;;17.86;41.15
21547;BME280;41275;51.912;4.388;2024-03-02T18:40:04;99768.47;;;17.91;40.83
21547;BME280;41275;51.912;4.388;2024-03-02T18:45:26;99763.22;;;18.00;40.81
21547;BME280;41275;51.912;4.388;2024-03-02T18:50:47;99764.97;;;18.05;40.51
21547;BME280;41275;51.912;4.388;2024-03-02T18:56:08;99766.06;;;18.04;40.65
21547;BME280;41275;51.912;4.388;2024-03-02T19:01:29;99764.00;;;18.01;40.56
21547;BME280;41275;51.912;4.388;2024-03-02T19:06:51;99756.56;;;17.98;40.43
21547;BME280;41275;51.912;4.388;2024-03-02T19:12:12;99748.84;;;17.96;40.84
21547;BME280;41275;51.912;4.388;2024-03-02T19:17:33;99746.84;;;17.88;40.87
21547;BME280;41275;51.912;4.388;2024-03-02T19:22:54;99745.09;;;17.83;41.06
21547;BME280;41275;51.912;4.388;2024-03-02T19:28:16;99735.66;;;17.86;40.92
21547;BME280;41275;51.912;4.388;2024-03-02T19:33:37;99729.22;;;17.87;41.02
21547;BME280;41275;51.912;4.388;2024-03-02T19:38:58;99735.28;;;17.93;40.95
21547;BME280;41275;51.912;4.388;2024-03-02T19:44:20;99733.97;;;17.90;41.06
21547;BME280;41275;51.912;4.388;2024-03-02T19:49:41;99733.31;;;17.84;41.07
21547;BME280;41275;51.912;4.388;2024-03-02T19:55:02;99735.66;;;17.86;41.01
21547;BME280;41275;51.912;4.388;2024-03-02T20:00:26;99721.19;;;17.87;41.05
21547;BME280;41275;51.912;4.388;2024-03-02T20:05:48;99724.38;;;17.89;40.99
21547;BME280;41275;51.912;4.388;2024-03-02T20:11:09;99735.34;;;17.87;40.84
21547;BME280;41275;51.912;4.388;2024-03-02T20:16:30;99729.22;;;17.87;40.90
21547;BME280;41275;51.912;4.388;2024-03-02T20:21:51;99722.28;;;17.86;40.44
21547;BME280;41275;51.912;4.388;2024-03-02T20:27:13;99724.19;;;17.85;40.76
21547;BME280;41275;51.912;4.388;2024-03-02T20:32:35;99718.81;;;17.85;40.97
21547;BME280;41275;51.912;4.388;2024-03-02T20:37:56;99724.94;;;17.72;41.00
21547;BME280;41275;51.912;4.388;2024-03-02T20:43:17;99721.63;;;17.53;41.17
21547;BME280;41275;51.912;4.388;2024-03-02T20:48:38;99717.97;;;17.35;41.54
21547;BME280;41275;51.912;4.388;2024-03-02T20:54:00;99718.28;;;17.33;41.44
21547;BME280;41275;51.912;4.388;2024-03-02T20:59:22;99725.91;;;17.26;41.67
21547;BME280;41275;51.912;4.388;2024-03-02T21:04:43;99731.25;;;17.26;41.93
21547;BME280;41275;51.912;4.388;2024-03-02T21:10:07;99721.03;;;17.42;41.90
21547;BME280;41275;51.912;4.388;2024-03-02T21:15:29;99737.69;;;17.53;41.94
21547;BME280;41275;51.912;4.388;2024-03-02T21:20:51;99732.03;;;17.54;41.78
21547;BME280;41275;51.912;4.388;2024-03-02T21:26:12;99731.44;;;17.57;41.88
21547;BME280;41275;51.912;4.388;2024-03-02T21:31:33;99734.59;;;17.59;42.02
21547;BME280;41275;51.912;4.388;2024-03-02T21:36:54;99734.31;;;17.61;42.01
21547;BME280;41275;51.912;4.388;2024-03-02T21:42:16;99733.31;;;17.57;42.22
21547;BME280;41275;51.912;4.388;2024-03-02T21:47:37;99730.44;;;17.53;42.29
21547;BME280;41275;51.912;4.388;2024-03-02T21:52:59;99725.88;;;17.54;42.10
21547;BME280;41275;51.912;4.388;2024-03-02T21:58:20;99731.72;;;17.56;42.30
21547;BME280;41275;51.912;4.388;2024-03-02T22:03:42;99734.91;;;17.58;42.24
21547;BME280;41275;51.912;4.388;2024-03-02T22:09:06;99738.97;;;17.55;42.14
21547;BME280;41275;51.912;4.388;2024-03-02T22:14:27;99736.16;;;17.60;42.35
21547;BME280;41275;51.912;4.388;2024-03-02T22:19:48;99733.31;;;17.57;42.44
21547;BME280;41275;51.912;4.388;2024-03-02T22:25:10;99730.34;;;17.58;42.46
21547;BME280;41275;51.912;4.388;2024-03-02T22:30:31;99736.69;;;17.62;42.28
21547;BME280;41275;51.912;4.388;2024-03-02T22:35:52;99738.84;;;17.60;42.73
21547;BME280;41275;51.912;4.388;2024-03-02T22:41:13;99734.91;;;17.58;43.00
21547;BME280;41275;51.912;4.388;2024-03-02T22:46:34;99732.09;;;17.63;43.10
21547;BME280;41275;51.912;4.388;2024-03-02T22:51:56;99726.75;;;17.63;43.11
21547;BME280;41275;51.912;4.388;2024-03-02T22:57:17;99730.22;;;17.63;42.98
21547;BME280;41275;51.912;4.388;2024-03-02T23:02:39;99727.16;;;17.56;43.16
21547;BME280;41275;51.912;4.388;2024-03-02T23:08:00;99726.28;;;17.47;43.48
21547;BME280;41275;51.912;4.388;2024-03-02T23:13:21;99723.63;;;17.33;43.33
21547;BME280;41275;51.912;4.388;2024-03-02T23:18:43;99732.94;;;17.22;43.37
21547;BME280;41275;51.912;4.388;2024-03-02T23:24:04;99728.66;;;17.07;43.38
21547;BME280;41275;51.912;4.388;2024-03-02T23:29:26;99730.94;;;17.00;43.54
21547;BME280;41275;51.912;4.388;2024-03-02T23:34:47;99740.34;;;17.11;43.36
21547;BME280;41275;51.912;4.388;2024-03-02T23:40:08;99746.09;;;17.18;43.42
21547;BME280;41275;51.912;4.388;2024-03-02T23:45:32;99748.06;;;17.13;43.51
21547;BME280;41275;51.912;4.388;2024-03-02T23:50:53;99746.47;;;17.12;43.45
21547;BME280;41275;51.912;4.388;2024-03-02T23:56:14;99736.97;;;17.20;43.45
